createdAt,value
2022-11-20T00:00:15.270Z,27.80
2022-11-20T00:01:15.284Z,28.80
2022-11-20T00:02:15.348Z,27.20
2022-11-20T00:03:15.259Z,27.50
2022-11-20T00:04:15.228Z,26.50
2022-11-20T00:05:15.233Z,27.60
2022-11-20T00:06:15.188Z,28.30
2022-11-20T00:07:15.226Z,27.10
2022-11-20T00:08:15.180Z,28.60
2022-11-20T00:09:15.195Z,27.50
2022-11-20T00:10:15.171Z,29.20
2022-11-20T00:11:16.329Z,27.40
2022-11-20T00:12:15.155Z,28.00
2022-11-20T00:13:15.146Z,27.10
2022-11-20T00:14:15.115Z,26.40
2022-11-20T00:15:15.133Z,27.20
2022-11-20T00:16:15.122Z,27.10
2022-11-20T00:17:15.127Z,27.60
2022-11-20T00:18:15.080Z,26.40
2022-11-20T00:19:15.083Z,27.70
2022-11-20T00:20:15.052Z,28.00
2022-11-20T00:21:15.068Z,27.70
2022-11-20T00:22:15.056Z,27.30
2022-11-20T00:23:15.071Z,26.90
2022-11-20T00:24:15.013Z,27.90
2022-11-20T00:25:15.034Z,28.80
2022-11-20T00:26:15.013Z,29.10
2022-11-20T00:27:15.008Z,26.30
2022-11-20T00:28:14.991Z,25.60
2022-11-20T00:29:15.007Z,26.70
2022-11-20T00:30:15.383Z,24.90
2022-11-20T00:31:14.991Z,27.20
2022-11-20T00:32:14.934Z,26.40
2022-11-20T00:33:14.952Z,26.70
2022-11-20T00:34:14.943Z,26.10
2022-11-20T00:35:14.951Z,27.70
2022-11-20T00:36:14.906Z,26.30
2022-11-20T00:37:14.914Z,27.70
2022-11-20T00:38:14.879Z,28.40
2022-11-20T00:39:14.896Z,27.00
2022-11-20T00:40:14.916Z,27.80
2022-11-20T00:41:14.866Z,28.80
2022-11-20T00:42:14.840Z,25.90
2022-11-20T00:43:14.848Z,26.10
2022-11-20T00:44:14.820Z,26.50
2022-11-20T00:45:14.836Z,27.20
2022-11-20T00:46:14.818Z,26.80
2022-11-20T00:47:14.819Z,25.40
2022-11-20T00:48:14.787Z,29.30
2022-11-20T00:49:14.788Z,26.80
2022-11-20T00:50:14.791Z,26.30
2022-11-20T00:51:14.764Z,27.80
2022-11-20T00:52:14.748Z,26.60
2022-11-20T00:53:14.749Z,27.80
2022-11-20T00:54:14.725Z,27.70
2022-11-20T00:55:14.725Z,27.80
2022-11-20T00:56:14.694Z,25.80
2022-11-20T00:57:14.739Z,26.60
2022-11-20T00:58:14.689Z,27.40
2022-11-20T00:59:14.699Z,26.40
2022-11-20T01:00:14.674Z,26.10
2022-11-20T01:01:14.808Z,28.70
2022-11-20T01:02:14.641Z,28.00
2022-11-20T01:03:14.671Z,26.70
2022-11-20T01:04:14.629Z,26.50
2022-11-20T01:05:14.625Z,26.70
2022-11-20T01:06:14.597Z,27.30
2022-11-20T01:07:14.671Z,25.70
2022-11-20T01:08:14.612Z,27.00
2022-11-20T01:09:14.579Z,27.00
2022-11-20T01:10:14.581Z,30.10
2022-11-20T01:11:14.555Z,30.60
2022-11-20T01:12:14.561Z,33.20
2022-11-20T01:13:14.551Z,30.00
2022-11-20T01:14:14.555Z,33.30
2022-11-20T01:15:14.515Z,32.20
2022-11-20T01:16:14.535Z,29.10
2022-11-20T01:17:14.480Z,31.20
2022-11-20T01:18:14.512Z,30.50
2022-11-20T01:19:17.728Z,29.40
2022-11-20T01:20:14.517Z,28.10
2022-11-20T01:21:14.447Z,28.50
2022-11-20T01:22:14.465Z,27.70
2022-11-20T01:23:14.440Z,27.20
2022-11-20T01:24:14.438Z,28.20
2022-11-20T01:25:14.419Z,28.00
2022-11-20T01:26:14.420Z,27.40
2022-11-20T01:27:14.383Z,25.70
2022-11-20T01:28:14.403Z,26.70
2022-11-20T01:29:14.364Z,27.50
2022-11-20T01:30:14.382Z,26.50
2022-11-20T01:31:14.399Z,27.10
2022-11-20T01:32:14.363Z,27.60
2022-11-20T01:33:14.338Z,28.70
2022-11-20T01:34:14.344Z,27.90
2022-11-20T01:35:14.314Z,27.20
2022-11-20T01:36:14.324Z,27.20
2022-11-20T01:37:14.310Z,28.70
2022-11-20T01:38:14.304Z,26.40
2022-11-20T01:39:14.270Z,29.50
2022-11-20T01:40:14.299Z,27.70
2022-11-20T01:41:14.254Z,27.30
2022-11-20T01:42:14.313Z,27.20
2022-11-20T01:43:14.230Z,27.80
2022-11-20T01:44:14.257Z,25.20
2022-11-20T01:45:14.223Z,28.30
2022-11-20T01:46:14.231Z,27.30
2022-11-20T01:47:14.218Z,27.30
2022-11-20T01:48:14.229Z,27.60
2022-11-20T01:49:14.166Z,27.50
2022-11-20T01:50:14.205Z,27.70
2022-11-20T01:51:14.193Z,27.80
2022-11-20T01:52:14.165Z,27.20
2022-11-20T01:53:14.244Z,27.60
2022-11-20T01:54:14.139Z,27.30
2022-11-20T01:55:14.130Z,28.20
2022-11-20T01:56:14.148Z,27.30
2022-11-20T01:57:14.087Z,28.10
2022-11-20T01:58:14.109Z,27.80
2022-11-20T01:59:14.097Z,28.00
2022-11-20T02:00:14.089Z,28.90
2022-11-20T02:01:14.112Z,28.40
2022-11-20T02:02:14.093Z,30.10
2022-11-20T02:03:14.028Z,28.90
2022-11-20T02:04:14.088Z,30.10
2022-11-20T02:05:14.014Z,30.80
2022-11-20T02:06:14.039Z,28.60
2022-11-20T02:07:14.086Z,29.70
2022-11-20T02:08:14.002Z,32.30
2022-11-20T02:09:13.999Z,29.10
2022-11-20T02:10:13.996Z,33.90
2022-11-20T02:11:13.973Z,33.40
2022-11-20T02:12:13.987Z,33.80
2022-11-20T02:13:13.938Z,31.00
2022-11-20T02:14:13.938Z,34.20
2022-11-20T02:15:13.940Z,32.20
2022-11-20T02:16:13.928Z,30.80
2022-11-20T02:17:13.908Z,31.10
2022-11-20T02:18:13.905Z,31.20
2022-11-20T02:19:13.880Z,29.90
2022-11-20T02:20:13.891Z,32.20
2022-11-20T02:21:13.886Z,29.70
2022-11-20T02:22:13.858Z,29.40
2022-11-20T02:23:13.848Z,29.50
2022-11-20T02:24:13.847Z,30.30
2022-11-20T02:25:13.807Z,30.50
2022-11-20T02:26:13.830Z,30.50
2022-11-20T02:27:13.818Z,29.10
2022-11-20T02:28:13.821Z,30.20
2022-11-20T02:29:13.791Z,29.50
2022-11-20T02:30:13.783Z,31.00
2022-11-20T02:31:13.752Z,30.40
2022-11-20T02:32:13.772Z,30.20
2022-11-20T02:33:13.767Z,28.60
2022-11-20T02:34:13.760Z,30.60
2022-11-20T02:35:13.712Z,31.80
2022-11-20T02:36:13.719Z,29.40
2022-11-20T02:37:13.688Z,29.70
2022-11-20T02:38:13.705Z,29.10
2022-11-20T02:39:13.703Z,29.20
2022-11-20T02:40:13.695Z,30.50
2022-11-20T02:41:13.641Z,28.90
2022-11-20T02:42:13.657Z,30.20
2022-11-20T02:43:13.624Z,29.50
2022-11-20T02:44:13.635Z,28.70
2022-11-20T02:45:13.629Z,27.40
2022-11-20T02:46:13.634Z,30.10
2022-11-20T02:47:13.599Z,28.60
2022-11-20T02:48:13.595Z,29.40
2022-11-20T02:49:13.562Z,27.00
2022-11-20T02:50:13.579Z,26.10
2022-11-20T02:51:13.588Z,27.10
2022-11-20T02:52:13.556Z,27.20
2022-11-20T02:53:13.587Z,27.00
2022-11-20T02:54:13.552Z,27.80
2022-11-20T02:55:13.525Z,26.80
2022-11-20T02:56:13.531Z,26.10
2022-11-20T02:57:13.583Z,25.90
2022-11-20T02:58:13.504Z,26.20
2022-11-20T02:59:13.466Z,27.10
2022-11-20T03:00:13.479Z,27.30
2022-11-20T03:01:13.496Z,25.70
2022-11-20T03:02:13.467Z,26.70
2022-11-20T03:03:13.448Z,24.90
2022-11-20T03:04:13.463Z,26.40
2022-11-20T03:05:13.410Z,26.40
2022-11-20T03:06:13.433Z,25.90
2022-11-20T03:07:13.462Z,26.40
2022-11-20T03:08:13.397Z,25.10
2022-11-20T03:09:13.398Z,25.90
2022-11-20T03:10:13.378Z,24.90
2022-11-20T03:11:13.338Z,27.50
2022-11-20T03:12:13.351Z,26.60
2022-11-20T03:13:13.322Z,25.30
2022-11-20T03:14:13.346Z,24.90
2022-11-20T03:15:13.350Z,25.80
2022-11-20T03:16:13.312Z,26.00
2022-11-20T03:17:13.296Z,25.80
2022-11-20T03:18:13.301Z,24.00
2022-11-20T03:19:13.260Z,24.70
2022-11-20T03:20:13.278Z,27.60
2022-11-20T03:21:13.272Z,25.60
2022-11-20T03:22:13.271Z,25.20
2022-11-20T03:23:13.226Z,25.70
2022-11-20T03:24:13.259Z,25.30
2022-11-20T03:25:13.205Z,24.80
2022-11-20T03:26:13.211Z,25.80
2022-11-20T03:27:13.196Z,23.90
2022-11-20T03:28:13.214Z,25.00
2022-11-20T03:29:13.162Z,25.80
2022-11-20T03:30:13.183Z,25.80
2022-11-20T03:31:13.150Z,24.60
2022-11-20T03:32:13.172Z,25.50
2022-11-20T03:33:13.136Z,25.50
2022-11-20T03:34:13.131Z,26.70
2022-11-20T03:35:13.099Z,23.70
2022-11-20T03:36:13.112Z,25.90
2022-11-20T03:37:13.087Z,26.20
2022-11-20T03:38:13.090Z,25.90
2022-11-20T03:39:13.096Z,25.90
2022-11-20T03:40:13.083Z,26.70
2022-11-20T03:41:13.039Z,25.50
2022-11-20T03:42:13.094Z,23.30
2022-11-20T03:43:13.042Z,27.20
2022-11-20T03:44:13.044Z,28.00
2022-11-20T03:45:13.018Z,23.50
2022-11-20T03:46:13.006Z,26.30
2022-11-20T03:47:12.990Z,25.20
2022-11-20T03:48:12.990Z,25.60
2022-11-20T03:49:12.959Z,24.00
2022-11-20T03:50:12.987Z,25.10
2022-11-20T03:51:12.981Z,26.80
2022-11-20T03:52:12.946Z,26.10
2022-11-20T03:53:12.939Z,27.10
2022-11-20T03:54:12.924Z,26.40
2022-11-20T03:55:12.916Z,26.30
2022-11-20T03:56:12.920Z,26.50
2022-11-20T03:57:12.899Z,25.20
2022-11-20T03:58:12.910Z,27.00
2022-11-20T03:59:12.861Z,26.80
2022-11-20T04:00:12.866Z,27.50
2022-11-20T04:01:12.829Z,25.50
2022-11-20T04:02:12.885Z,26.10
2022-11-20T04:03:12.838Z,25.80
2022-11-20T04:04:12.852Z,26.80
2022-11-20T04:05:12.795Z,26.70
2022-11-20T04:06:12.817Z,25.10
2022-11-20T04:07:12.795Z,26.60
2022-11-20T04:08:12.797Z,26.10
2022-11-20T04:09:12.775Z,24.40
2022-11-20T04:10:12.776Z,24.70
2022-11-20T04:11:12.740Z,26.80
2022-11-20T04:12:12.773Z,25.70
2022-11-20T04:13:12.706Z,26.00
2022-11-20T04:14:12.727Z,26.10
2022-11-20T04:15:12.717Z,24.70
2022-11-20T04:16:12.701Z,23.60
2022-11-20T04:17:12.668Z,24.20
2022-11-20T04:18:12.694Z,25.00
2022-11-20T04:19:12.650Z,23.40
2022-11-20T04:20:12.685Z,24.50
2022-11-20T04:21:12.689Z,24.10
2022-11-20T04:22:12.618Z,23.80
2022-11-20T04:23:12.645Z,25.00
2022-11-20T04:24:12.615Z,24.40
2022-11-20T04:25:12.607Z,25.60
2022-11-20T04:26:12.581Z,23.70
2022-11-20T04:27:12.603Z,24.20
2022-11-20T04:28:12.561Z,25.10
2022-11-20T04:29:12.587Z,24.80
2022-11-20T04:30:12.549Z,24.40
2022-11-20T04:31:12.574Z,24.30
2022-11-20T04:32:12.522Z,22.30
2022-11-20T04:33:12.565Z,23.40
2022-11-20T04:34:12.507Z,23.50
2022-11-20T04:35:12.542Z,23.60
2022-11-20T04:36:12.482Z,22.90
2022-11-20T04:37:12.487Z,22.40
2022-11-20T04:38:12.457Z,23.60
2022-11-20T04:39:12.495Z,24.00
2022-11-20T04:40:12.444Z,23.10
2022-11-20T04:41:12.457Z,24.90
2022-11-20T04:42:12.415Z,22.90
2022-11-20T04:43:12.438Z,23.70
2022-11-20T04:44:12.422Z,24.30
2022-11-20T04:45:12.462Z,23.00
2022-11-20T04:46:12.371Z,23.10
2022-11-20T04:47:12.391Z,22.20
2022-11-20T04:48:12.364Z,24.00
2022-11-20T04:49:12.497Z,23.40
2022-11-20T04:50:12.332Z,22.80
2022-11-20T04:51:12.393Z,21.30
2022-11-20T04:52:12.327Z,22.80
2022-11-20T04:53:12.344Z,22.50
2022-11-20T04:54:12.299Z,22.00
2022-11-20T04:55:12.311Z,21.80
2022-11-20T04:56:12.287Z,22.80
2022-11-20T04:57:14.621Z,22.60
2022-11-20T04:58:12.271Z,22.20
2022-11-20T04:59:12.265Z,22.80
2022-11-20T05:00:12.233Z,23.60
2022-11-20T05:01:12.281Z,21.00
2022-11-20T05:02:12.218Z,23.20
2022-11-20T05:03:12.258Z,23.30
2022-11-20T05:04:12.214Z,23.20
2022-11-20T05:05:12.224Z,22.70
2022-11-20T05:06:12.184Z,23.10
2022-11-20T05:07:12.203Z,23.90
2022-11-20T05:08:12.148Z,23.40
2022-11-20T05:09:12.279Z,23.80
2022-11-20T05:10:12.154Z,23.10
2022-11-20T05:11:12.144Z,24.00
2022-11-20T05:12:12.109Z,23.20
2022-11-20T05:13:12.142Z,25.00
2022-11-20T05:14:12.088Z,23.50
2022-11-20T05:15:12.133Z,22.30
2022-11-20T05:16:12.067Z,22.80
2022-11-20T05:17:12.107Z,22.70
2022-11-20T05:18:12.060Z,23.00
2022-11-20T05:19:12.072Z,23.80
2022-11-20T05:20:12.034Z,23.90
2022-11-20T05:21:12.070Z,23.70
2022-11-20T05:22:12.022Z,23.70
2022-11-20T05:23:12.030Z,22.80
2022-11-20T05:24:12.005Z,22.40
2022-11-20T05:25:11.993Z,23.70
2022-11-20T05:26:12.006Z,23.00
2022-11-20T05:27:11.968Z,22.50
2022-11-20T05:28:11.989Z,22.20
2022-11-20T05:29:11.935Z,23.90
2022-11-20T05:30:11.946Z,23.60
2022-11-20T05:31:11.939Z,24.90
2022-11-20T05:32:11.945Z,22.50
2022-11-20T05:33:11.935Z,24.00
2022-11-20T05:34:11.913Z,23.70
2022-11-20T05:35:11.882Z,22.80
2022-11-20T05:36:11.900Z,22.80
2022-11-20T05:37:11.853Z,22.70
2022-11-20T05:38:11.865Z,22.40
2022-11-20T05:39:11.875Z,23.20
2022-11-20T05:40:11.861Z,22.70
2022-11-20T05:41:11.810Z,23.90
2022-11-20T05:42:11.844Z,22.50
2022-11-20T05:43:11.790Z,23.10
2022-11-20T05:44:11.800Z,22.90
2022-11-20T05:45:11.800Z,22.40
2022-11-20T05:46:11.809Z,22.30
2022-11-20T05:47:11.757Z,22.60
2022-11-20T05:48:11.771Z,22.60
2022-11-20T05:49:11.826Z,23.80
2022-11-20T05:50:11.754Z,22.60
2022-11-20T05:51:11.741Z,23.80
2022-11-20T05:52:11.723Z,22.70
2022-11-20T05:53:11.703Z,22.60
2022-11-20T05:54:11.708Z,22.90
2022-11-20T05:55:11.685Z,24.00
2022-11-20T05:56:11.685Z,25.20
2022-11-20T05:57:11.673Z,23.50
2022-11-20T05:58:11.658Z,24.90
2022-11-20T05:59:11.638Z,24.60
2022-11-20T06:00:11.652Z,24.80
2022-11-20T06:01:11.616Z,23.00
2022-11-20T06:02:11.781Z,24.60
2022-11-20T06:03:11.612Z,23.40
2022-11-20T06:04:11.600Z,24.10
2022-11-20T06:05:11.565Z,22.90
2022-11-20T06:06:11.576Z,24.20
2022-11-20T06:07:11.591Z,24.80
2022-11-20T06:08:11.559Z,23.60
2022-11-20T06:09:11.539Z,25.00
2022-11-20T06:10:11.555Z,24.50
2022-11-20T06:11:11.513Z,24.60
2022-11-20T06:12:11.514Z,24.00
2022-11-20T06:13:11.484Z,23.80
2022-11-20T06:14:11.496Z,24.10
2022-11-20T06:15:11.509Z,23.50
2022-11-20T06:16:11.513Z,24.20
2022-11-20T06:17:11.457Z,24.00
2022-11-20T06:18:11.480Z,23.80
2022-11-20T06:19:11.451Z,25.30
2022-11-20T06:20:11.445Z,24.80
2022-11-20T06:21:11.455Z,24.50
2022-11-20T06:22:11.431Z,23.90
2022-11-20T06:23:11.382Z,23.30
2022-11-20T06:24:11.399Z,22.50
2022-11-20T06:25:11.360Z,23.70
2022-11-20T06:26:11.414Z,22.90
2022-11-20T06:27:11.366Z,22.90
2022-11-20T06:28:11.360Z,23.80
2022-11-20T06:29:11.327Z,24.30
2022-11-20T06:30:11.335Z,22.90
2022-11-20T06:31:11.308Z,25.70
2022-11-20T06:32:11.325Z,26.10
2022-11-20T06:33:11.312Z,24.80
2022-11-20T06:34:11.293Z,24.00
2022-11-20T06:35:11.265Z,25.00
2022-11-20T06:36:11.298Z,22.80
2022-11-20T06:37:11.259Z,24.50
2022-11-20T06:38:11.264Z,23.70
2022-11-20T06:39:11.237Z,23.90
2022-11-20T06:40:11.233Z,22.90
2022-11-20T06:41:11.207Z,23.90
2022-11-20T06:42:11.211Z,24.70
2022-11-20T06:43:11.181Z,24.20
2022-11-20T06:44:11.221Z,23.90
2022-11-20T06:45:11.212Z,22.80
2022-11-20T06:46:11.171Z,23.20
2022-11-20T06:47:11.151Z,23.70
2022-11-20T06:48:11.152Z,23.50
2022-11-20T06:49:11.128Z,23.80
2022-11-20T06:50:11.138Z,23.50
2022-11-20T06:51:11.129Z,24.00
2022-11-20T06:52:11.117Z,23.10
2022-11-20T06:53:11.075Z,25.60
2022-11-20T06:54:11.108Z,24.70
2022-11-20T06:55:11.057Z,25.30
2022-11-20T06:56:11.084Z,25.00
2022-11-20T06:57:11.060Z,24.80
2022-11-20T06:58:11.055Z,26.00
2022-11-20T06:59:11.026Z,24.60
2022-11-20T07:00:11.039Z,25.50
2022-11-20T07:01:11.073Z,24.30
2022-11-20T07:02:11.012Z,26.50
2022-11-20T07:03:11.016Z,26.00
2022-11-20T07:04:11.020Z,23.40
2022-11-20T07:05:10.966Z,23.90
2022-11-20T07:06:10.995Z,23.60
2022-11-20T07:07:10.988Z,24.90
2022-11-20T07:08:10.959Z,24.00
2022-11-20T07:09:12.880Z,27.00
2022-11-20T07:10:10.938Z,23.60
2022-11-20T07:11:10.933Z,24.40
2022-11-20T07:12:10.914Z,24.30
2022-11-20T07:13:10.905Z,25.50
2022-11-20T07:14:10.897Z,23.90
2022-11-20T07:15:10.884Z,23.90
2022-11-20T07:16:10.880Z,24.40
2022-11-20T07:17:10.836Z,24.10
2022-11-20T07:18:10.853Z,25.40
2022-11-20T07:19:10.813Z,23.80
2022-11-20T07:20:10.857Z,25.70
2022-11-20T07:21:10.850Z,24.70
2022-11-20T07:22:10.811Z,25.70
2022-11-20T07:23:10.782Z,24.80
2022-11-20T07:24:10.842Z,24.50
2022-11-20T07:25:10.757Z,24.80
2022-11-20T07:26:10.771Z,25.40
2022-11-20T07:27:10.766Z,25.20
2022-11-20T07:28:10.773Z,25.40
2022-11-20T07:29:10.721Z,23.10
2022-11-20T07:30:10.736Z,24.60
2022-11-20T07:31:13.425Z,24.20
2022-11-20T07:32:10.747Z,23.70
2022-11-20T07:33:10.705Z,25.10
2022-11-20T07:34:10.686Z,22.60
2022-11-20T07:35:10.656Z,25.60
2022-11-20T07:36:10.673Z,23.30
2022-11-20T07:37:10.749Z,24.10
2022-11-20T07:38:10.654Z,22.40
2022-11-20T07:39:10.629Z,24.10
2022-11-20T07:40:10.741Z,23.50
2022-11-20T07:41:10.591Z,23.70
2022-11-20T07:42:10.627Z,22.90
2022-11-20T07:43:10.575Z,23.30
2022-11-20T07:44:10.641Z,23.40
2022-11-20T07:45:10.572Z,23.20
2022-11-20T07:46:10.569Z,23.30
2022-11-20T07:47:10.554Z,23.80
2022-11-20T07:48:10.549Z,24.70
2022-11-20T07:49:10.507Z,24.30
2022-11-20T07:50:10.540Z,24.00
2022-11-20T07:51:10.502Z,25.60
2022-11-20T07:52:10.503Z,24.80
2022-11-20T07:53:10.483Z,24.30
2022-11-20T07:54:10.487Z,24.90
2022-11-20T07:55:10.483Z,23.80
2022-11-20T07:56:10.466Z,24.80
2022-11-20T07:57:10.455Z,23.70
2022-11-20T07:58:10.462Z,24.70
2022-11-20T07:59:10.409Z,24.70
2022-11-20T08:00:10.450Z,24.10
2022-11-20T08:01:10.478Z,24.00
2022-11-20T08:02:10.409Z,24.90
2022-11-20T08:03:10.371Z,23.50
2022-11-20T08:04:10.405Z,23.50
2022-11-20T08:05:10.395Z,22.20
2022-11-20T08:06:10.399Z,23.60
2022-11-20T08:07:10.377Z,22.30
2022-11-20T08:08:10.349Z,22.70
2022-11-20T08:09:10.310Z,23.80
2022-11-20T08:10:10.335Z,23.80
2022-11-20T08:11:10.294Z,22.40
2022-11-20T08:12:10.328Z,21.60
2022-11-20T08:13:10.266Z,22.50
2022-11-20T08:14:10.280Z,24.40
2022-11-20T08:15:13.349Z,31.20
2022-11-20T08:16:10.270Z,26.10
2022-11-20T08:17:10.280Z,27.40
2022-11-20T08:19:10.235Z,33.70
2022-11-20T08:20:10.223Z,33.50
2022-11-20T08:21:10.204Z,33.60
2022-11-20T08:22:10.195Z,31.30
2022-11-20T08:23:10.185Z,26.80
2022-11-20T08:24:10.198Z,26.70
2022-11-20T08:25:10.144Z,25.10
2022-11-20T08:26:10.165Z,27.30
2022-11-20T08:27:10.131Z,22.60
2022-11-20T08:28:19.966Z,24.50
2022-11-20T08:29:10.115Z,23.30
2022-11-20T08:30:10.124Z,24.00
2022-11-20T08:31:10.112Z,22.70
2022-11-20T08:32:10.098Z,22.80
2022-11-20T08:33:10.071Z,23.80
2022-11-20T08:34:12.076Z,25.90
2022-11-20T08:35:10.062Z,21.40
2022-11-20T08:36:10.062Z,22.20
2022-11-20T08:37:10.025Z,23.10
2022-11-20T08:38:10.055Z,22.10
2022-11-20T08:39:10.031Z,21.20
2022-11-20T08:40:10.040Z,21.80
2022-11-20T08:41:09.987Z,22.80
2022-11-20T08:42:10.009Z,21.40
2022-11-20T08:43:09.977Z,23.50
2022-11-20T08:44:09.979Z,22.20
2022-11-20T08:45:09.961Z,25.10
2022-11-20T08:46:09.971Z,22.90
2022-11-20T08:47:09.950Z,23.70
2022-11-20T08:48:09.945Z,26.00
2022-11-20T08:49:09.911Z,25.00
2022-11-20T08:50:09.940Z,23.40
2022-11-20T08:51:09.901Z,26.10
2022-11-20T08:52:09.900Z,25.20
2022-11-20T08:53:09.881Z,23.70
2022-11-20T08:54:09.878Z,25.00
2022-11-20T08:55:09.861Z,25.80
2022-11-20T08:56:09.885Z,24.00
2022-11-20T08:57:09.828Z,23.70
2022-11-20T08:58:09.840Z,25.90
2022-11-20T08:59:43.473Z,26.30
2022-11-20T09:00:10.164Z,26.10
2022-11-20T09:01:09.852Z,26.20
2022-11-20T09:02:09.807Z,28.80
2022-11-20T09:03:09.754Z,31.70
2022-11-20T09:04:09.771Z,27.30
2022-11-20T09:05:09.746Z,29.60
2022-11-20T09:06:09.750Z,30.40
2022-11-20T09:07:09.844Z,30.50
2022-11-20T09:08:09.742Z,29.00
2022-11-20T09:09:09.700Z,27.80
2022-11-20T09:10:23.604Z,28.80
2022-11-20T09:11:09.687Z,28.10
2022-11-20T09:12:09.724Z,27.80
2022-11-20T09:13:09.665Z,27.00
2022-11-20T09:14:09.672Z,25.70
2022-11-20T09:15:09.653Z,25.30
2022-11-20T09:16:09.664Z,26.50
2022-11-20T09:17:09.629Z,26.10
2022-11-20T09:18:09.637Z,25.10
2022-11-20T09:20:09.617Z,28.70
2022-11-20T09:21:09.656Z,27.20
2022-11-20T09:22:09.587Z,31.60
2022-11-20T09:23:09.589Z,28.90
2022-11-20T09:24:09.563Z,28.00
2022-11-20T09:25:09.541Z,27.40
2022-11-20T09:26:09.550Z,26.80
2022-11-20T09:27:09.528Z,28.00
2022-11-20T09:28:09.524Z,27.60
2022-11-20T09:29:09.510Z,26.20
2022-11-20T09:30:09.526Z,26.40
2022-11-20T09:31:09.498Z,30.30
2022-11-20T09:32:09.510Z,25.60
2022-11-20T09:33:09.456Z,26.10
2022-11-20T09:34:09.497Z,26.80
2022-11-20T09:35:09.452Z,29.80
2022-11-20T09:36:09.440Z,30.60
2022-11-20T09:37:09.552Z,28.70
2022-11-20T09:38:09.431Z,30.50
2022-11-20T09:39:09.455Z,27.20
2022-11-20T09:40:09.410Z,27.30
2022-11-20T09:41:09.410Z,28.10
2022-11-20T09:42:09.357Z,28.10
2022-11-20T09:43:09.406Z,28.40
2022-11-20T09:44:09.343Z,27.80
2022-11-20T09:45:09.398Z,27.70
2022-11-20T09:46:09.328Z,28.00
2022-11-20T09:47:09.333Z,28.80
2022-11-20T09:48:09.303Z,29.20
2022-11-20T09:49:09.313Z,29.10
2022-11-20T09:50:09.451Z,28.60
2022-11-20T09:51:09.333Z,28.30
2022-11-20T09:52:09.271Z,28.60
2022-11-20T09:53:09.265Z,27.50
2022-11-20T09:54:09.259Z,30.50
2022-11-20T09:55:09.248Z,33.50
2022-11-20T09:56:09.348Z,30.20
2022-11-20T09:57:09.224Z,32.70
2022-11-20T09:58:09.199Z,33.60
2022-11-20T09:59:09.207Z,34.50
2022-11-20T10:00:09.181Z,33.50
2022-11-20T10:01:09.255Z,34.20
2022-11-20T10:02:09.168Z,35.30
2022-11-20T10:03:09.162Z,35.40
2022-11-20T10:04:09.132Z,33.20
2022-11-20T10:05:09.159Z,32.00
2022-11-20T10:06:09.110Z,33.50
2022-11-20T10:07:31.425Z,33.40
2022-11-20T10:08:09.136Z,35.00
2022-11-20T10:09:09.121Z,34.10
2022-11-20T10:10:09.082Z,34.30
2022-11-20T10:11:09.094Z,32.90
2022-11-20T10:12:09.051Z,33.80
2022-11-20T10:13:09.094Z,34.50
2022-11-20T10:14:09.027Z,32.90
2022-11-20T10:15:09.059Z,34.30
2022-11-20T10:16:09.009Z,33.50
2022-11-20T10:17:09.023Z,33.50
2022-11-20T10:18:09.005Z,34.20
2022-11-20T10:19:09.011Z,33.40
2022-11-20T10:20:09.013Z,33.60
2022-11-20T10:21:08.978Z,32.90
2022-11-20T10:22:08.969Z,32.40
2022-11-20T10:23:08.959Z,32.80
2022-11-20T10:24:08.944Z,31.20
2022-11-20T10:25:08.937Z,31.70
2022-11-20T10:26:09.161Z,32.30
2022-11-20T10:27:09.856Z,32.60
2022-11-20T10:28:08.895Z,31.20
2022-11-20T10:29:09.277Z,31.60
2022-11-20T10:30:08.883Z,32.00
2022-11-20T10:31:08.894Z,32.30
2022-11-20T10:32:08.860Z,32.00
2022-11-20T10:33:08.876Z,33.90
2022-11-20T10:34:12.774Z,31.10
2022-11-20T10:35:08.850Z,33.40
2022-11-20T10:36:08.801Z,33.80
2022-11-20T10:37:08.839Z,32.10
2022-11-20T10:38:08.814Z,33.80
2022-11-20T10:39:08.811Z,31.10
2022-11-20T10:40:08.785Z,34.10
2022-11-20T10:41:08.777Z,31.60
2022-11-20T10:42:08.758Z,33.00
2022-11-20T10:43:08.792Z,32.40
2022-11-20T10:44:08.760Z,32.70
2022-11-20T10:45:08.735Z,31.60
2022-11-20T10:46:08.724Z,32.30
2022-11-20T10:47:08.715Z,31.70
2022-11-20T10:48:08.697Z,31.20
2022-11-20T10:49:08.696Z,33.50
2022-11-20T10:50:08.687Z,32.80
2022-11-20T10:51:08.705Z,31.80
2022-11-20T10:52:08.662Z,30.40
2022-11-20T10:53:08.652Z,28.80
2022-11-20T10:54:08.625Z,29.10
2022-11-20T10:55:08.648Z,30.60
2022-11-20T10:56:08.615Z,29.70
2022-11-20T10:57:08.817Z,29.20
2022-11-20T10:58:08.573Z,30.20
2022-11-20T10:59:08.592Z,29.50
2022-11-20T11:00:08.568Z,30.10
2022-11-20T11:01:08.608Z,30.50
2022-11-20T11:02:08.777Z,28.40
2022-11-20T11:03:08.794Z,28.70
2022-11-20T11:04:08.516Z,26.30
2022-11-20T11:05:14.098Z,24.40
2022-11-20T11:06:08.502Z,22.80
2022-11-20T11:07:08.547Z,23.90
2022-11-20T11:08:08.506Z,24.10
2022-11-20T11:09:08.487Z,25.50
2022-11-20T11:10:08.455Z,23.40
2022-11-20T11:11:08.475Z,24.20
2022-11-20T11:12:08.433Z,24.70
2022-11-20T11:13:08.467Z,24.40
2022-11-20T11:14:08.419Z,26.20
2022-11-20T11:15:08.421Z,27.70
2022-11-20T11:16:08.384Z,25.60
2022-11-20T11:17:08.420Z,25.50
2022-11-20T11:18:08.362Z,24.80
2022-11-20T11:19:08.388Z,25.30
2022-11-20T11:20:08.363Z,23.60
2022-11-20T11:21:08.379Z,23.90
2022-11-20T11:22:08.320Z,26.00
2022-11-20T11:23:08.333Z,25.60
2022-11-20T11:24:34.702Z,22.10
2022-11-20T11:25:08.323Z,21.40
2022-11-20T11:26:08.283Z,21.40
2022-11-20T11:27:12.377Z,22.00
2022-11-20T11:28:08.303Z,23.00
2022-11-20T11:29:08.268Z,20.30
2022-11-20T11:30:08.250Z,22.20
2022-11-20T11:31:08.258Z,22.60
2022-11-20T11:32:08.213Z,20.20
2022-11-20T11:33:08.265Z,21.20
2022-11-20T11:34:08.192Z,20.60
2022-11-20T11:35:08.222Z,21.00
2022-11-20T11:36:08.180Z,21.10
2022-11-20T11:37:08.200Z,23.00
2022-11-20T11:38:08.161Z,21.70
2022-11-20T11:39:08.178Z,22.60
2022-11-20T11:40:24.781Z,23.50
2022-11-20T11:41:08.162Z,23.70
2022-11-20T11:42:08.117Z,24.20
2022-11-20T11:43:08.131Z,24.60
2022-11-20T11:44:08.116Z,22.80
2022-11-20T11:45:08.101Z,25.60
2022-11-20T11:46:08.107Z,24.00
2022-11-20T11:47:08.111Z,24.40
2022-11-20T11:48:08.073Z,24.10
2022-11-20T11:49:08.057Z,25.00
2022-11-20T11:50:08.052Z,25.90
2022-11-20T11:51:08.060Z,24.70
2022-11-20T11:52:08.047Z,26.10
2022-11-20T11:53:08.023Z,24.20
2022-11-20T11:54:07.988Z,26.20
2022-11-20T11:55:11.621Z,27.20
2022-11-20T11:56:07.993Z,24.10
2022-11-20T11:57:08.089Z,26.40
2022-11-20T11:58:07.943Z,24.50
2022-11-20T11:59:07.960Z,24.80
2022-11-20T12:00:07.928Z,23.90
2022-11-20T12:01:07.932Z,24.90
2022-11-20T12:02:07.942Z,23.40
2022-11-20T12:03:07.936Z,23.50
2022-11-20T12:04:07.880Z,24.60
2022-11-20T12:05:07.887Z,26.60
2022-11-20T12:06:07.885Z,24.50
2022-11-20T12:07:44.171Z,23.60
2022-11-20T12:08:12.393Z,23.10
2022-11-20T12:09:07.850Z,23.80
2022-11-20T12:10:07.813Z,23.70
2022-11-20T12:11:07.825Z,25.00
2022-11-20T12:12:07.823Z,25.40
2022-11-20T12:13:07.801Z,24.70
2022-11-20T12:14:07.783Z,24.70
2022-11-20T12:15:07.796Z,24.70
2022-11-20T12:16:07.775Z,24.20
2022-11-20T12:17:07.772Z,23.60
2022-11-20T12:18:07.755Z,24.40
2022-11-20T12:19:08.023Z,26.40
2022-11-20T12:20:07.716Z,28.40
2022-11-20T12:21:07.982Z,27.80
2022-11-20T12:22:07.699Z,25.40
2022-11-20T12:23:07.751Z,27.30
2022-11-20T12:24:07.852Z,26.70
2022-11-20T12:25:07.925Z,27.50
2022-11-20T12:26:07.664Z,28.50
2022-11-20T12:27:07.657Z,27.00
2022-11-20T12:28:08.371Z,26.20
2022-11-20T12:29:07.678Z,29.40
2022-11-20T12:30:08.416Z,27.50
2022-11-20T12:31:07.615Z,27.80
2022-11-20T12:32:07.631Z,28.70
2022-11-20T12:33:07.589Z,28.30
2022-11-20T12:34:07.596Z,27.10
2022-11-20T12:35:11.418Z,28.00
2022-11-20T12:36:07.546Z,28.10
2022-11-20T12:37:07.575Z,31.20
2022-11-20T12:38:07.615Z,31.50
2022-11-20T12:39:07.533Z,28.70
2022-11-20T12:40:07.533Z,29.40
2022-11-20T12:41:07.529Z,32.00
2022-11-20T12:42:07.494Z,28.20
2022-11-20T12:43:07.506Z,28.40
2022-11-20T12:44:07.464Z,27.80
2022-11-20T12:45:07.496Z,28.50
2022-11-20T12:46:07.452Z,26.80
2022-11-20T12:47:07.576Z,28.70
2022-11-20T12:48:07.435Z,30.20
2022-11-20T12:49:07.451Z,30.20
2022-11-20T12:50:07.509Z,29.90
2022-11-20T12:51:15.112Z,30.70
2022-11-20T12:52:07.379Z,30.80
2022-11-20T12:53:07.436Z,30.50
2022-11-20T12:54:07.361Z,29.20